createdAt,value
2023-02-09T00:00:10.939Z,21.47
2023-02-09T00:02:38.800Z,21.47
2023-02-09T00:05:07.925Z,21.47
2023-02-09T00:07:36.995Z,21.45
2023-02-09T00:10:04.733Z,21.46
2023-02-09T00:12:49.613Z,21.45
2023-02-09T00:15:17.244Z,21.44
2023-02-09T00:17:45.450Z,21.43
2023-02-09T00:20:13.232Z,21.43
2023-02-09T00:22:42.242Z,21.42
2023-02-09T00:25:09.885Z,21.42
2023-02-09T00:27:37.548Z,21.41
2023-02-09T00:30:05.514Z,21.43
2023-02-09T00:32:33.287Z,21.44
2023-02-09T00:35:00.989Z,21.44
2023-02-09T00:37:28.676Z,21.46
2023-02-09T00:39:57.754Z,21.46
2023-02-09T00:42:25.465Z,21.47
2023-02-09T00:44:53.136Z,21.46
2023-02-09T00:47:20.877Z,21.47
2023-02-09T00:49:48.494Z,21.47
2023-02-09T00:52:16.164Z,21.48
2023-02-09T00:54:43.838Z,21.47
2023-02-09T00:57:12.969Z,21.48
2023-02-09T00:59:42.501Z,21.48
2023-02-09T01:02:10.267Z,21.47
2023-02-09T01:04:38.845Z,21.46
2023-02-09T01:07:06.626Z,21.45
2023-02-09T01:09:34.373Z,21.43
2023-02-09T01:12:02.033Z,21.39
2023-02-09T01:14:31.122Z,21.43
2023-02-09T01:16:58.831Z,21.41
2023-02-09T01:19:26.889Z,21.41
2023-02-09T01:21:54.562Z,21.41
2023-02-09T01:24:22.186Z,21.41
2023-02-09T01:26:49.974Z,21.40
2023-02-09T01:29:18.071Z,21.39
2023-02-09T01:31:47.424Z,21.40
2023-02-09T01:34:15.730Z,21.38
2023-02-09T01:36:43.527Z,21.38
2023-02-09T01:39:11.636Z,21.39
2023-02-09T01:41:39.451Z,21.39
2023-02-09T01:44:07.480Z,21.39
2023-02-09T01:46:35.555Z,21.39
2023-02-09T01:49:05.773Z,21.38
2023-02-09T01:51:34.267Z,21.38
2023-02-09T01:54:02.115Z,21.36
2023-02-09T01:56:30.446Z,21.36
2023-02-09T01:58:58.102Z,21.37
2023-02-09T02:01:25.933Z,21.38
2023-02-09T02:03:54.109Z,21.40
2023-02-09T02:06:23.256Z,21.40
2023-02-09T02:08:52.617Z,21.41
2023-02-09T02:11:20.296Z,21.40
2023-02-09T02:13:48.058Z,21.41
2023-02-09T02:16:39.840Z,21.43
2023-02-09T02:19:18.161Z,21.40
2023-02-09T02:22:09.660Z,21.40
2023-02-09T02:24:46.750Z,21.39
2023-02-09T02:27:15.511Z,21.39
2023-02-09T02:30:04.665Z,21.39
2023-02-09T02:32:35.660Z,21.39
2023-02-09T02:35:04.563Z,21.39
2023-02-09T02:37:35.505Z,21.39
2023-02-09T02:40:05.008Z,21.39
2023-02-09T02:42:51.992Z,21.39
2023-02-09T02:45:30.491Z,21.38
2023-02-09T02:48:00.154Z,21.38
2023-02-09T02:50:28.449Z,21.39
2023-02-09T02:52:56.601Z,21.39
2023-02-09T02:55:25.578Z,21.38
2023-02-09T02:57:53.305Z,21.38
2023-02-09T03:00:21.609Z,21.39
2023-02-09T03:02:50.092Z,21.38
2023-02-09T03:05:19.310Z,21.38
2023-02-09T03:07:47.022Z,21.38
2023-02-09T03:10:25.227Z,21.40
2023-02-09T03:12:53.594Z,21.40
2023-02-09T03:15:23.580Z,21.40
2023-02-09T03:17:52.727Z,21.39
2023-02-09T03:20:24.780Z,21.41
2023-02-09T03:22:56.360Z,21.42
2023-02-09T03:25:25.225Z,21.41
2023-02-09T03:27:54.717Z,21.41
2023-02-09T03:30:22.466Z,21.42
2023-02-09T03:32:50.179Z,21.41
2023-02-09T03:35:18.769Z,21.40
2023-02-09T03:37:47.866Z,21.41
2023-02-09T03:40:15.491Z,21.40
2023-02-09T03:42:43.156Z,21.40
2023-02-09T03:45:11.021Z,21.39
2023-02-09T03:47:38.659Z,21.38
2023-02-09T03:50:07.548Z,21.38
2023-02-09T03:52:35.249Z,21.40
2023-02-09T03:55:05.337Z,21.38
2023-02-09T03:57:33.042Z,21.39
2023-02-09T04:00:01.794Z,21.38
2023-02-09T04:02:30.419Z,21.38
2023-02-09T04:04:58.170Z,21.37
2023-02-09T04:07:25.989Z,21.38
2023-02-09T04:09:53.753Z,21.37
2023-02-09T04:12:22.762Z,21.38
2023-02-09T04:14:50.493Z,21.37
2023-02-09T04:17:18.156Z,21.38
2023-02-09T04:19:45.796Z,21.38
2023-02-09T04:22:13.452Z,21.38
2023-02-09T04:24:41.120Z,21.38
2023-02-09T04:27:08.843Z,21.38
2023-02-09T04:29:37.909Z,21.39
2023-02-09T04:32:05.858Z,21.39
2023-02-09T04:34:33.565Z,21.39
2023-02-09T04:37:01.285Z,21.38
2023-02-09T04:39:28.997Z,21.39
2023-02-09T04:41:56.694Z,21.36
2023-02-09T04:44:24.297Z,21.37
2023-02-09T04:46:53.410Z,21.36
2023-02-09T04:49:21.167Z,21.37
2023-02-09T04:51:48.816Z,21.36
2023-02-09T04:54:16.527Z,21.34
2023-02-09T04:56:44.326Z,21.34
2023-02-09T04:59:29.469Z,21.35
2023-02-09T05:01:58.623Z,21.35
2023-02-09T05:04:26.319Z,21.34
2023-02-09T05:06:54.091Z,21.34
2023-02-09T05:09:21.848Z,21.34
2023-02-09T05:11:49.493Z,21.34
2023-02-09T05:14:17.161Z,21.34
2023-02-09T05:16:45.321Z,21.35
2023-02-09T05:19:14.398Z,21.35
2023-02-09T05:21:42.095Z,21.34
2023-02-09T05:24:09.766Z,21.33
2023-02-09T05:26:37.439Z,21.33
2023-02-09T05:29:05.143Z,21.34
2023-02-09T05:31:33.002Z,21.35
2023-02-09T05:34:01.747Z,21.34
2023-02-09T05:36:30.881Z,21.35
2023-02-09T05:38:58.580Z,21.34
2023-02-09T05:41:43.622Z,21.35
2023-02-09T05:44:11.348Z,21.34
2023-02-09T05:46:39.109Z,21.34
2023-02-09T05:49:06.820Z,21.34
2023-02-09T05:51:35.866Z,21.35
2023-02-09T05:54:03.577Z,21.33
2023-02-09T05:56:31.263Z,21.34
2023-02-09T05:58:59.018Z,21.33
2023-02-09T06:01:26.672Z,21.34
2023-02-09T06:03:54.414Z,21.34
2023-02-09T06:06:22.081Z,21.34
2023-02-09T06:08:51.191Z,21.33
2023-02-09T06:11:19.376Z,21.34
2023-02-09T06:13:47.127Z,21.35
2023-02-09T06:16:14.862Z,21.35
2023-02-09T06:18:42.566Z,21.36
2023-02-09T06:21:11.617Z,21.36
2023-02-09T06:23:39.313Z,21.36
2023-02-09T06:26:09.238Z,21.37
2023-02-09T06:28:36.963Z,21.38
2023-02-09T06:31:05.467Z,21.39
2023-02-09T06:33:33.195Z,21.40
2023-02-09T06:36:01.170Z,21.41
2023-02-09T06:38:28.802Z,21.41
2023-02-09T06:40:56.518Z,21.43
2023-02-09T06:43:25.626Z,21.44
2023-02-09T06:45:53.273Z,21.46
2023-02-09T06:48:21.233Z,21.46
2023-02-09T06:50:49.087Z,21.47
2023-02-09T06:53:17.233Z,21.48
2023-02-09T06:55:44.921Z,21.50
2023-02-09T06:58:12.676Z,21.51
2023-02-09T07:00:41.829Z,21.51
2023-02-09T07:03:09.521Z,21.52
2023-02-09T07:05:37.282Z,21.53
2023-02-09T07:08:04.969Z,21.54
2023-02-09T07:10:32.626Z,21.55
2023-02-09T07:13:00.249Z,21.55
2023-02-09T07:15:27.926Z,21.56
2023-02-09T07:17:57.036Z,21.58
2023-02-09T07:20:24.825Z,21.60
2023-02-09T07:22:52.611Z,21.63
2023-02-09T07:25:20.362Z,21.64
2023-02-09T07:27:48.223Z,21.65
2023-02-09T07:30:16.677Z,21.67
2023-02-09T07:32:44.380Z,21.70
2023-02-09T07:35:13.463Z,21.70
2023-02-09T07:37:41.122Z,21.72
2023-02-09T07:40:09.526Z,21.73
2023-02-09T07:42:37.296Z,21.76
2023-02-09T07:45:05.103Z,21.78
2023-02-09T07:47:32.892Z,21.81
2023-02-09T07:50:00.583Z,21.84
2023-02-09T07:52:29.640Z,21.87
2023-02-09T07:54:57.337Z,21.89
2023-02-09T07:57:25.042Z,21.92
2023-02-09T07:59:53.346Z,21.92
2023-02-09T08:02:25.676Z,21.96
2023-02-09T08:04:53.680Z,21.98
2023-02-09T08:07:21.423Z,21.97
2023-02-09T08:09:51.061Z,21.97
2023-02-09T08:12:19.062Z,21.99
2023-02-09T08:14:48.399Z,22.00
2023-02-09T08:17:26.166Z,22.00
2023-02-09T08:19:54.511Z,22.02
2023-02-09T08:22:22.678Z,22.05
2023-02-09T08:24:51.732Z,22.07
2023-02-09T08:27:19.402Z,22.09
2023-02-09T08:29:48.940Z,22.12
2023-02-09T08:32:16.868Z,22.14
2023-02-09T08:34:44.631Z,22.16
2023-02-09T08:37:12.961Z,22.17
2023-02-09T08:39:40.686Z,22.20
2023-02-09T08:42:09.772Z,22.22
2023-02-09T08:44:38.073Z,22.23
2023-02-09T08:47:06.002Z,22.27
2023-02-09T08:49:34.348Z,22.27
2023-02-09T08:52:02.070Z,22.30
2023-02-09T08:54:30.897Z,22.32
2023-02-09T08:56:58.676Z,22.36
2023-02-09T08:59:28.649Z,22.38
2023-02-09T09:01:56.453Z,22.43
2023-02-09T09:04:24.874Z,22.43
2023-02-09T09:06:53.236Z,22.45
2023-02-09T09:09:20.933Z,22.46
2023-02-09T09:11:50.240Z,22.48
2023-02-09T09:14:17.901Z,22.53
2023-02-09T09:16:47.033Z,22.59
2023-02-09T09:19:16.138Z,22.63
2023-02-09T09:21:43.851Z,22.64
2023-02-09T09:24:11.521Z,22.64
2023-02-09T09:26:39.775Z,22.65
2023-02-09T09:29:07.455Z,22.68
2023-02-09T09:31:35.920Z,22.73
2023-02-09T09:34:05.104Z,22.76
2023-02-09T09:36:32.839Z,22.83
2023-02-09T09:39:01.118Z,22.87
2023-02-09T09:41:30.095Z,22.97
2023-02-09T09:43:58.402Z,23.01
2023-02-09T09:46:27.929Z,23.00
2023-02-09T09:48:56.889Z,23.00
2023-02-09T09:51:28.803Z,22.97
2023-02-09T09:53:57.130Z,22.95
2023-02-09T09:56:27.076Z,22.95
2023-02-09T09:58:55.635Z,22.96
2023-02-09T10:01:23.437Z,22.96
2023-02-09T10:03:51.900Z,22.98
2023-02-09T10:06:21.814Z,23.00
2023-02-09T10:08:53.667Z,23.03
2023-02-09T10:11:21.800Z,23.04
2023-02-09T10:13:50.036Z,23.06
2023-02-09T10:16:19.245Z,23.06
2023-02-09T10:18:47.052Z,23.08
2023-02-09T10:21:16.168Z,23.08
2023-02-09T10:23:44.892Z,23.10
2023-02-09T10:26:24.788Z,23.10
2023-02-09T10:28:52.984Z,23.12
2023-02-09T10:31:24.245Z,23.13
2023-02-09T10:33:53.533Z,23.14
2023-02-09T10:36:28.733Z,23.15
2023-02-09T10:39:04.252Z,23.16
2023-02-09T10:41:34.515Z,23.18
2023-02-09T10:44:02.998Z,23.19
2023-02-09T10:46:30.691Z,23.21
2023-02-09T10:48:59.077Z,23.22
2023-02-09T10:51:29.329Z,23.23
2023-02-09T10:54:02.314Z,23.24
2023-02-09T10:56:30.385Z,23.24
2023-02-09T10:59:02.311Z,23.26
2023-02-09T11:01:30.262Z,23.27
2023-02-09T11:04:01.121Z,23.29
2023-02-09T11:06:29.580Z,23.31
2023-02-09T11:08:58.097Z,23.32
2023-02-09T11:11:33.173Z,23.33
2023-02-09T11:14:02.269Z,23.35
2023-02-09T11:16:46.341Z,23.35
2023-02-09T11:19:16.221Z,23.36
2023-02-09T11:21:48.121Z,23.38
2023-02-09T11:24:17.523Z,23.39
2023-02-09T11:26:49.289Z,23.40
2023-02-09T11:29:19.895Z,23.40
2023-02-09T11:32:03.288Z,23.42
2023-02-09T11:34:43.855Z,23.41
2023-02-09T11:37:18.322Z,23.41
2023-02-09T11:39:47.308Z,23.43
2023-02-09T11:42:36.147Z,23.43
2023-02-09T11:45:08.595Z,23.42
2023-02-09T11:47:41.125Z,23.41
2023-02-09T11:50:09.436Z,23.41
2023-02-09T11:52:37.739Z,23.42
2023-02-09T11:55:10.310Z,23.42
2023-02-09T11:57:40.650Z,23.42
2023-02-09T12:00:12.176Z,23.41
2023-02-09T12:02:42.110Z,23.41
2023-02-09T12:05:13.309Z,23.39
2023-02-09T12:07:42.286Z,23.37
2023-02-09T12:10:14.604Z,23.30
2023-02-09T12:12:44.495Z,23.22
2023-02-09T12:15:20.025Z,23.18
2023-02-09T12:17:48.728Z,23.15
2023-02-09T12:20:24.263Z,23.15
2023-02-09T12:22:53.590Z,23.14
2023-02-09T12:25:22.777Z,23.13
2023-02-09T12:28:12.084Z,23.13
2023-02-09T12:30:58.249Z,23.09
2023-02-09T12:33:31.580Z,23.09
2023-02-09T12:35:59.835Z,23.07
2023-02-09T12:38:29.238Z,23.05
2023-02-09T12:41:03.239Z,23.02
2023-02-09T12:43:32.081Z,23.03
2023-02-09T12:46:19.985Z,23.02
2023-02-09T12:48:53.263Z,23.01
2023-02-09T12:51:38.797Z,23.01
2023-02-09T12:54:22.035Z,22.99
2023-02-09T12:56:49.705Z,22.99
2023-02-09T12:59:18.508Z,22.98
2023-02-09T13:02:04.600Z,22.97
2023-02-09T13:04:36.349Z,22.97
2023-02-09T13:07:04.785Z,22.97
2023-02-09T13:09:33.660Z,22.96
2023-02-09T13:12:03.861Z,22.96
2023-02-09T13:14:31.529Z,22.95
2023-02-09T13:17:19.606Z,22.96
2023-02-09T13:19:57.755Z,22.94
2023-02-09T13:22:28.944Z,22.93
2023-02-09T13:24:58.039Z,22.93
2023-02-09T13:27:25.887Z,22.93
2023-02-09T13:29:54.892Z,22.92
2023-02-09T13:32:25.612Z,22.92
2023-02-09T13:34:54.608Z,22.93
2023-02-09T13:37:25.253Z,22.92
2023-02-09T13:39:58.343Z,22.94
2023-02-09T13:42:26.757Z,22.93
2023-02-09T13:44:54.744Z,22.93
2023-02-09T13:47:23.122Z,22.93
2023-02-09T13:49:57.346Z,22.94
2023-02-09T13:52:27.514Z,22.95
2023-02-09T13:54:55.191Z,22.96
2023-02-09T13:57:29.883Z,22.94
2023-02-09T13:59:57.880Z,22.96
2023-02-09T14:02:27.150Z,22.96
2023-02-09T14:05:02.660Z,22.96
2023-02-09T14:07:34.785Z,22.97
2023-02-09T14:10:05.468Z,22.97
2023-02-09T14:12:52.880Z,22.96
2023-02-09T14:15:41.451Z,22.96
2023-02-09T14:18:31.450Z,22.95
2023-02-09T14:21:02.016Z,22.94
2023-02-09T14:23:35.251Z,22.93
2023-02-09T14:26:05.331Z,22.94
2023-02-09T14:28:34.268Z,22.94
2023-02-09T14:31:03.398Z,22.96
2023-02-09T14:33:32.131Z,22.95
2023-02-09T14:36:01.948Z,22.94
2023-02-09T14:38:38.606Z,22.95
2023-02-09T14:41:19.983Z,22.93
2023-02-09T14:43:57.339Z,22.94
2023-02-09T14:46:25.830Z,22.92
2023-02-09T14:48:56.724Z,22.91
2023-02-09T14:51:25.050Z,22.88
2023-02-09T14:53:54.050Z,22.86
2023-02-09T14:56:25.298Z,22.86
2023-02-09T14:58:52.921Z,22.85
2023-02-09T15:01:20.642Z,22.84
2023-02-09T15:03:49.094Z,22.85
2023-02-09T15:06:17.544Z,22.85
2023-02-09T15:08:45.312Z,22.83
2023-02-09T15:11:34.560Z,22.82
2023-02-09T15:14:03.909Z,22.82
2023-02-09T15:16:32.416Z,22.81
2023-02-09T15:19:00.108Z,22.80
2023-02-09T15:21:28.600Z,22.78
2023-02-09T15:23:56.274Z,22.77
2023-02-09T15:26:26.887Z,22.74
2023-02-09T15:28:55.402Z,22.72
2023-02-09T15:31:23.062Z,22.71
2023-02-09T15:33:51.471Z,22.72
2023-02-09T15:36:19.537Z,22.70
2023-02-09T15:38:48.074Z,22.70
2023-02-09T15:41:36.354Z,22.69
2023-02-09T15:44:24.166Z,22.70
2023-02-09T15:47:09.340Z,22.68
2023-02-09T15:49:38.643Z,22.68
2023-02-09T15:52:06.524Z,22.66
2023-02-09T15:54:34.286Z,22.64
2023-02-09T15:57:03.581Z,22.63
2023-02-09T15:59:32.828Z,22.60
2023-02-09T16:02:01.270Z,22.60
2023-02-09T16:04:31.482Z,22.59
2023-02-09T16:06:59.264Z,22.57
2023-02-09T16:09:28.501Z,22.56
2023-02-09T16:11:56.434Z,22.56
2023-02-09T16:14:26.591Z,22.52
2023-02-09T16:16:55.897Z,22.50
2023-02-09T16:19:24.575Z,22.55
2023-02-09T16:21:53.061Z,22.54
2023-02-09T16:24:23.553Z,22.53
2023-02-09T16:26:51.296Z,22.53
2023-02-09T16:29:19.026Z,22.52
2023-02-09T16:31:47.636Z,22.51
2023-02-09T16:34:16.814Z,22.53
2023-02-09T16:36:45.068Z,22.54
2023-02-09T16:39:17.190Z,22.55
2023-02-09T16:41:51.627Z,22.54
2023-02-09T16:44:21.770Z,22.54
2023-02-09T16:46:50.457Z,22.53
2023-02-09T16:49:34.875Z,22.53
2023-02-09T16:52:03.407Z,22.52
2023-02-09T16:54:31.463Z,22.53
2023-02-09T16:57:03.789Z,22.52
2023-02-09T16:59:32.292Z,22.52
2023-02-09T17:02:02.206Z,22.51
2023-02-09T17:04:32.959Z,22.50
2023-02-09T17:07:01.863Z,22.50
2023-02-09T17:09:30.900Z,22.47
2023-02-09T17:11:58.615Z,22.49
2023-02-09T17:14:27.733Z,22.47
2023-02-09T17:16:56.549Z,22.48
2023-02-09T17:19:24.205Z,22.48
2023-02-09T17:21:54.651Z,22.49
2023-02-09T17:24:22.314Z,22.50
2023-02-09T17:26:50.816Z,22.50
2023-02-09T17:29:21.341Z,22.50
2023-02-09T17:31:53.518Z,22.50
2023-02-09T17:34:27.814Z,22.50
2023-02-09T17:36:57.034Z,22.51
2023-02-09T17:39:24.688Z,22.51
2023-02-09T17:41:54.725Z,22.53
2023-02-09T17:44:35.362Z,22.53
2023-02-09T17:47:12.728Z,22.56
2023-02-09T17:49:40.492Z,22.56
2023-02-09T17:52:19.000Z,22.57
2023-02-09T17:54:47.714Z,22.58
2023-02-09T17:57:15.412Z,22.58
2023-02-09T17:59:45.306Z,22.59
2023-02-09T18:02:14.658Z,22.60
2023-02-09T18:04:44.309Z,22.61
2023-02-09T18:07:14.541Z,22.64
2023-02-09T18:09:42.235Z,22.64
2023-02-09T18:12:12.693Z,22.64
2023-02-09T18:14:40.441Z,22.64
2023-02-09T18:17:09.063Z,22.64
2023-02-09T18:19:36.718Z,22.65
2023-02-09T18:22:10.787Z,22.65
2023-02-09T18:24:39.824Z,22.66
2023-02-09T18:27:08.762Z,22.68
2023-02-09T18:29:37.823Z,22.69
2023-02-09T18:32:05.657Z,22.70
2023-02-09T18:34:35.775Z,22.69
2023-02-09T18:37:03.506Z,22.68
2023-02-09T18:39:32.620Z,22.69
2023-02-09T18:42:01.694Z,22.69
2023-02-09T18:44:33.816Z,22.69
2023-02-09T18:47:02.052Z,22.69
2023-02-09T18:49:32.474Z,22.69
2023-02-09T18:52:01.658Z,22.68
2023-02-09T18:54:32.037Z,22.69
2023-02-09T18:57:02.977Z,22.70
2023-02-09T18:59:33.033Z,22.70
2023-02-09T19:02:00.868Z,22.69
2023-02-09T19:04:31.787Z,22.69
2023-02-09T19:07:01.801Z,22.69
2023-02-09T19:09:29.661Z,22.69
2023-02-09T19:11:58.823Z,22.70
2023-02-09T19:14:40.096Z,22.71
2023-02-09T19:17:09.942Z,22.71
2023-02-09T19:19:38.772Z,22.72
2023-02-09T19:22:06.486Z,22.72
2023-02-09T19:24:35.202Z,22.74
2023-02-09T19:27:03.621Z,22.74
2023-02-09T19:29:32.781Z,22.75
2023-02-09T19:32:02.805Z,22.75
2023-02-09T19:34:31.270Z,22.75
2023-02-09T19:37:00.209Z,22.78
2023-02-09T19:39:28.029Z,22.79
2023-02-09T19:41:56.595Z,22.81
2023-02-09T19:44:24.252Z,22.81
2023-02-09T19:46:53.366Z,22.81
2023-02-09T19:49:22.211Z,22.81
2023-02-09T19:51:49.826Z,22.82
2023-02-09T19:54:18.478Z,22.88
2023-02-09T19:56:46.254Z,22.92
2023-02-09T19:59:14.080Z,22.93
2023-02-09T20:01:42.651Z,22.93
2023-02-09T20:04:15.985Z,22.93
2023-02-09T20:06:44.499Z,22.92
2023-02-09T20:09:12.432Z,22.91
2023-02-09T20:11:41.182Z,22.90
2023-02-09T20:14:08.890Z,22.88
2023-02-09T20:16:37.512Z,22.86
2023-02-09T20:19:05.459Z,22.84
2023-02-09T20:21:35.546Z,22.83
2023-02-09T20:24:07.793Z,22.81
2023-02-09T20:26:36.363Z,22.80
2023-02-09T20:29:05.360Z,22.79
2023-02-09T20:31:34.894Z,22.77
2023-02-09T20:34:06.958Z,22.75
2023-02-09T20:36:36.631Z,22.72
2023-02-09T20:39:05.421Z,22.70
2023-02-09T20:41:33.160Z,22.68
2023-02-09T20:44:19.848Z,22.67
2023-02-09T20:46:59.405Z,22.66
2023-02-09T20:49:32.128Z,22.66
2023-02-09T20:52:01.733Z,22.66
2023-02-09T20:54:33.870Z,22.65
2023-02-09T20:57:01.580Z,22.66
2023-02-09T20:59:31.911Z,22.65
2023-02-09T21:01:59.654Z,22.65
2023-02-09T21:04:32.120Z,22.65
2023-02-09T21:07:04.166Z,22.64
2023-02-09T21:09:32.689Z,22.63
2023-02-09T21:12:00.426Z,22.63
2023-02-09T21:14:41.123Z,22.63
2023-02-09T21:17:09.194Z,22.61
2023-02-09T21:19:37.892Z,22.61
2023-02-09T21:22:07.048Z,22.59
2023-02-09T21:24:34.701Z,22.59
2023-02-09T21:27:03.921Z,22.58
2023-02-09T21:29:31.574Z,22.57
2023-02-09T21:32:03.952Z,22.57
2023-02-09T21:34:31.769Z,22.55
2023-02-09T21:36:59.518Z,22.55
2023-02-09T21:39:29.529Z,22.55
2023-02-09T21:42:14.690Z,22.53
2023-02-09T21:44:43.347Z,22.53
2023-02-09T21:47:11.526Z,22.52
2023-02-09T21:49:39.215Z,22.50
2023-02-09T21:52:08.269Z,22.50
2023-02-09T21:54:37.338Z,22.50
2023-02-09T21:57:05.109Z,22.49
2023-02-09T21:59:33.609Z,22.46
2023-02-09T22:02:01.382Z,22.45
2023-02-09T22:04:30.483Z,22.44
2023-02-09T22:06:59.277Z,22.42
2023-02-09T22:11:56.913Z,22.39
2023-02-09T22:14:24.512Z,22.39
2023-02-09T22:16:53.042Z,22.39
2023-02-09T22:19:20.670Z,22.37
2023-02-09T22:21:49.215Z,22.37
2023-02-09T22:24:16.914Z,22.35
2023-02-09T22:26:45.804Z,22.35
2023-02-09T22:29:15.136Z,22.33
2023-02-09T22:31:43.606Z,22.31
2023-02-09T22:34:11.296Z,22.31
2023-02-09T22:36:39.819Z,22.30
2023-02-09T22:39:08.506Z,22.29
2023-02-09T22:41:36.201Z,22.27
2023-02-09T22:44:05.197Z,22.26
2023-02-09T22:46:34.794Z,22.25
2023-02-09T22:49:03.173Z,22.24
2023-02-09T22:51:31.890Z,22.24
2023-02-09T22:53:59.744Z,22.25
2023-02-09T22:56:28.242Z,22.24
2023-02-09T22:58:55.948Z,22.24
2023-02-09T23:01:24.955Z,22.23
2023-02-09T23:03:54.108Z,22.22
2023-02-09T23:06:24.070Z,22.23
2023-02-09T23:08:53.700Z,22.21
2023-02-09T23:11:21.498Z,22.21
2023-02-09T23:13:52.875Z,22.20
2023-02-09T23:16:23.711Z,22.19
2023-02-09T23:18:51.865Z,22.17
2023-02-09T23:21:21.129Z,22.17
2023-02-09T23:23:48.837Z,22.16
2023-02-09T23:26:16.628Z,22.14
2023-02-09T23:28:44.590Z,22.13
2023-02-09T23:31:13.095Z,22.12
2023-02-09T23:33:40.857Z,22.10
2023-02-09T23:36:09.227Z,22.09
2023-02-09T23:38:38.390Z,22.09
2023-02-09T23:41:06.674Z,22.07
2023-02-09T23:43:34.516Z,22.07
2023-02-09T23:46:02.477Z,22.05
2023-02-09T23:48:30.282Z,22.05
2023-02-09T23:51:00.989Z,22.03
2023-02-09T23:53:28.667Z,22.03
2023-02-09T23:56:03.773Z,22.02
2023-02-09T23:58:31.915Z,22.02
